sensor_id;sensor_type;location;lat;lon;timestamp;temperature;humidity
19538;DHT22;9914;51.008;4.300;2022-10-16T00:01:22;15.20;99.90
19538;DHT22;9914;51.008;4.300;2022-10-16T00:03:49;15.10;99.90
19538;DHT22;9914;51.008;4.300;2022-10-16T00:06:17;15.10;99.90
19538;DHT22;9914;51.008;4.300;2022-10-16T00:08:43;15.10;99.90
19538;DHT22;9914;51.008;4.300;2022-10-16T00:11:15;15.10;99.90
19538;DHT22;9914;51.008;4.300;2022-10-16T00:13:42;15.10;99.90
19538;DHT22;9914;51.008;4.300;2022-10-16T00:16:09;15.10;99.90
19538;DHT22;9914;51.008;4.300;2022-10-16T00:18:36;15.10;99.90
19538;DHT22;9914;51.008;4.300;2022-10-16T00:21:07;15.00;99.90
19538;DHT22;9914;51.008;4.300;2022-10-16T00:23:34;15.00;99.90
19538;DHT22;9914;51.008;4.300;2022-10-16T00:26:03;15.00;99.90
19538;DHT22;9914;51.008;4.300;2022-10-16T00:28:30;15.00;99.90
19538;DHT22;9914;51.008;4.300;2022-10-16T00:30:56;14.90;99.90
19538;DHT22;9914;51.008;4.300;2022-10-16T00:33:21;14.90;99.90
19538;DHT22;9914;51.008;4.300;2022-10-16T00:35:48;14.90;99.90
19538;DHT22;9914;51.008;4.300;2022-10-16T00:38:13;15.00;99.90
19538;DHT22;9914;51.008;4.300;2022-10-16T00:40:39;15.00;99.90
19538;DHT22;9914;51.008;4.300;2022-10-16T00:45:56;15.00;99.90
19538;DHT22;9914;51.008;4.300;2022-10-16T00:48:22;15.00;99.90
19538;DHT22;9914;51.008;4.300;2022-10-16T00:50:47;14.90;99.90
19538;DHT22;9914;51.008;4.300;2022-10-16T00:53:14;14.90;99.90
19538;DHT22;9914;51.008;4.300;2022-10-16T00:55:41;14.90;99.90
19538;DHT22;9914;51.008;4.300;2022-10-16T00:58:06;14.90;99.90
19538;DHT22;9914;51.008;4.300;2022-10-16T01:00:32;14.90;99.90
19538;DHT22;9914;51.008;4.300;2022-10-16T01:03:00;14.80;99.90
19538;DHT22;9914;51.008;4.300;2022-10-16T01:05:34;14.80;99.90
19538;DHT22;9914;51.008;4.300;2022-10-16T01:08:25;14.80;99.90
19538;DHT22;9914;51.008;4.300;2022-10-16T01:11:15;14.70;99.90
19538;DHT22;9914;51.008;4.300;2022-10-16T01:13:47;14.70;99.90
19538;DHT22;9914;51.008;4.300;2022-10-16T01:16:21;14.70;99.90
19538;DHT22;9914;51.008;4.300;2022-10-16T01:18:56;14.70;99.90
19538;DHT22;9914;51.008;4.300;2022-10-16T01:21:29;14.70;99.90
19538;DHT22;9914;51.008;4.300;2022-10-16T01:24:12;14.70;99.90
19538;DHT22;9914;51.008;4.300;2022-10-16T01:27:05;14.80;99.90
19538;DHT22;9914;51.008;4.300;2022-10-16T01:32:45;14.70;99.90
19538;DHT22;9914;51.008;4.300;2022-10-16T01:35:25;14.70;99.90
19538;DHT22;9914;51.008;4.300;2022-10-16T01:38:02;14.70;99.90
19538;DHT22;9914;51.008;4.300;2022-10-16T01:40:30;14.70;99.90
19538;DHT22;9914;51.008;4.300;2022-10-16T01:43:06;14.70;99.90
19538;DHT22;9914;51.008;4.300;2022-10-16T01:45:34;14.70;99.90
19538;DHT22;9914;51.008;4.300;2022-10-16T01:48:02;14.70;99.90
19538;DHT22;9914;51.008;4.300;2022-10-16T01:50:33;14.70;99.90
19538;DHT22;9914;51.008;4.300;2022-10-16T01:53:02;14.60;99.90
19538;DHT22;9914;51.008;4.300;2022-10-16T01:55:32;14.60;99.90
19538;DHT22;9914;51.008;4.300;2022-10-16T01:57:59;14.50;99.90
19538;DHT22;9914;51.008;4.300;2022-10-16T02:00:27;14.60;99.90
19538;DHT22;9914;51.008;4.300;2022-10-16T02:02:53;14.60;99.90
19538;DHT22;9914;51.008;4.300;2022-10-16T02:05:28;14.60;99.90
19538;DHT22;9914;51.008;4.300;2022-10-16T02:07:56;14.60;99.90
19538;DHT22;9914;51.008;4.300;2022-10-16T02:10:23;14.50;99.90
19538;DHT22;9914;51.008;4.300;2022-10-16T02:13:00;14.50;99.90
19538;DHT22;9914;51.008;4.300;2022-10-16T02:15:28;14.60;99.90
19538;DHT22;9914;51.008;4.300;2022-10-16T02:17:54;14.60;99.90
19538;DHT22;9914;51.008;4.300;2022-10-16T02:20:24;14.60;99.90
19538;DHT22;9914;51.008;4.300;2022-10-16T02:22:51;14.60;99.90
19538;DHT22;9914;51.008;4.300;2022-10-16T02:27:59;14.50;99.90
19538;DHT22;9914;51.008;4.300;2022-10-16T02:32:59;14.50;99.90
19538;DHT22;9914;51.008;4.300;2022-10-16T02:35:26;14.40;99.90
19538;DHT22;9914;51.008;4.300;2022-10-16T02:37:53;14.50;99.90
19538;DHT22;9914;51.008;4.300;2022-10-16T02:40:20;14.50;99.90
19538;DHT22;9914;51.008;4.300;2022-10-16T02:42:50;14.50;99.90
19538;DHT22;9914;51.008;4.300;2022-10-16T02:45:18;14.50;99.90
19538;DHT22;9914;51.008;4.300;2022-10-16T02:47:44;14.40;99.90
19538;DHT22;9914;51.008;4.300;2022-10-16T02:50:10;14.50;99.90
19538;DHT22;9914;51.008;4.300;2022-10-16T02:52:35;14.50;99.90
19538;DHT22;9914;51.008;4.300;2022-10-16T02:55:01;14.50;99.90
19538;DHT22;9914;51.008;4.300;2022-10-16T02:57:27;14.50;99.90
19538;DHT22;9914;51.008;4.300;2022-10-16T02:59:52;14.50;99.90
19538;DHT22;9914;51.008;4.300;2022-10-16T03:02:18;14.60;99.90
19538;DHT22;9914;51.008;4.300;2022-10-16T03:04:44;14.50;99.90
19538;DHT22;9914;51.008;4.300;2022-10-16T03:07:09;14.50;99.90
19538;DHT22;9914;51.008;4.300;2022-10-16T03:09:35;14.50;99.90
19538;DHT22;9914;51.008;4.300;2022-10-16T03:12:01;14.60;99.90
19538;DHT22;9914;51.008;4.300;2022-10-16T03:14:26;14.60;99.90
19538;DHT22;9914;51.008;4.300;2022-10-16T03:16:52;14.60;99.90
19538;DHT22;9914;51.008;4.300;2022-10-16T03:19:18;14.50;99.90
19538;DHT22;9914;51.008;4.300;2022-10-16T03:21:44;14.50;99.90
19538;DHT22;9914;51.008;4.300;2022-10-16T03:24:09;14.50;99.90
19538;DHT22;9914;51.008;4.300;2022-10-16T03:26:36;14.50;99.90
19538;DHT22;9914;51.008;4.300;2022-10-16T03:29:01;14.50;99.90
19538;DHT22;9914;51.008;4.300;2022-10-16T03:31:29;14.50;99.90
19538;DHT22;9914;51.008;4.300;2022-10-16T03:33:54;14.60;99.90
19538;DHT22;9914;51.008;4.300;2022-10-16T03:36:20;14.60;99.90
19538;DHT22;9914;51.008;4.300;2022-10-16T03:38:45;14.50;99.90
19538;DHT22;9914;51.008;4.300;2022-10-16T03:41:11;14.50;99.90
19538;DHT22;9914;51.008;4.300;2022-10-16T03:43:36;14.60;99.90
19538;DHT22;9914;51.008;4.300;2022-10-16T03:46:02;14.50;99.90
19538;DHT22;9914;51.008;4.300;2022-10-16T03:48:28;14.50;99.90
19538;DHT22;9914;51.008;4.300;2022-10-16T03:50:53;14.60;99.90
19538;DHT22;9914;51.008;4.300;2022-10-16T03:53:20;14.60;99.90
19538;DHT22;9914;51.008;4.300;2022-10-16T03:55:45;14.60;99.90
19538;DHT22;9914;51.008;4.300;2022-10-16T03:58:11;14.60;99.90
19538;DHT22;9914;51.008;4.300;2022-10-16T04:00:42;14.60;99.90
19538;DHT22;9914;51.008;4.300;2022-10-16T04:03:08;14.60;99.90
19538;DHT22;9914;51.008;4.300;2022-10-16T04:05:33;14.60;99.90
19538;DHT22;9914;51.008;4.300;2022-10-16T04:07:59;14.70;99.90
19538;DHT22;9914;51.008;4.300;2022-10-16T04:10:24;14.60;99.90
19538;DHT22;9914;51.008;4.300;2022-10-16T04:12:50;14.50;99.90
19538;DHT22;9914;51.008;4.300;2022-10-16T04:15:16;14.50;99.90
19538;DHT22;9914;51.008;4.300;2022-10-16T04:17:41;14.60;99.90
19538;DHT22;9914;51.008;4.300;2022-10-16T04:20:07;14.50;99.90
19538;DHT22;9914;51.008;4.300;2022-10-16T04:22:33;14.50;99.90
19538;DHT22;9914;51.008;4.300;2022-10-16T04:24:58;14.50;99.90
19538;DHT22;9914;51.008;4.300;2022-10-16T04:27:24;14.40;99.90
19538;DHT22;9914;51.008;4.300;2022-10-16T04:29:49;14.40;99.90
19538;DHT22;9914;51.008;4.300;2022-10-16T04:32:15;14.30;99.90
19538;DHT22;9914;51.008;4.300;2022-10-16T04:34:41;14.30;99.90
19538;DHT22;9914;51.008;4.300;2022-10-16T04:37:06;14.30;99.90
19538;DHT22;9914;51.008;4.300;2022-10-16T04:39:32;14.40;99.90
19538;DHT22;9914;51.008;4.300;2022-10-16T04:41:58;14.40;99.90
19538;DHT22;9914;51.008;4.300;2022-10-16T04:44:23;14.40;99.90
19538;DHT22;9914;51.008;4.300;2022-10-16T04:46:52;14.40;99.90
19538;DHT22;9914;51.008;4.300;2022-10-16T04:49:17;14.40;99.90
19538;DHT22;9914;51.008;4.300;2022-10-16T04:51:43;14.40;99.90
19538;DHT22;9914;51.008;4.300;2022-10-16T04:54:09;14.30;99.90
19538;DHT22;9914;51.008;4.300;2022-10-16T04:56:35;14.30;99.90
19538;DHT22;9914;51.008;4.300;2022-10-16T04:59:08;14.20;99.90
19538;DHT22;9914;51.008;4.300;2022-10-16T05:01:34;14.20;99.90
19538;DHT22;9914;51.008;4.300;2022-10-16T05:04:00;14.30;99.90
19538;DHT22;9914;51.008;4.300;2022-10-16T05:06:26;14.20;99.90
19538;DHT22;9914;51.008;4.300;2022-10-16T05:08:51;14.20;99.90
19538;DHT22;9914;51.008;4.300;2022-10-16T05:11:17;14.20;99.90
19538;DHT22;9914;51.008;4.300;2022-10-16T05:13:42;14.20;99.90
19538;DHT22;9914;51.008;4.300;2022-10-16T05:16:08;14.20;99.90
19538;DHT22;9914;51.008;4.300;2022-10-16T05:18:33;14.10;99.90
19538;DHT22;9914;51.008;4.300;2022-10-16T05:20:59;14.10;99.90
19538;DHT22;9914;51.008;4.300;2022-10-16T05:23:25;14.10;99.90
19538;DHT22;9914;51.008;4.300;2022-10-16T05:25:57;14.10;99.90
19538;DHT22;9914;51.008;4.300;2022-10-16T05:28:24;14.10;99.90
19538;DHT22;9914;51.008;4.300;2022-10-16T05:30:50;14.20;99.90
19538;DHT22;9914;51.008;4.300;2022-10-16T05:33:16;14.10;99.90
19538;DHT22;9914;51.008;4.300;2022-10-16T05:35:42;14.10;99.90
19538;DHT22;9914;51.008;4.300;2022-10-16T05:38:07;14.00;99.90
19538;DHT22;9914;51.008;4.300;2022-10-16T05:40:33;14.00;99.90
19538;DHT22;9914;51.008;4.300;2022-10-16T05:42:58;14.00;99.90
19538;DHT22;9914;51.008;4.300;2022-10-16T05:45:24;14.00;99.90
19538;DHT22;9914;51.008;4.300;2022-10-16T05:47:50;14.00;99.90
19538;DHT22;9914;51.008;4.300;2022-10-16T05:50:16;14.00;99.90
19538;DHT22;9914;51.008;4.300;2022-10-16T05:52:41;14.00;99.90
19538;DHT22;9914;51.008;4.300;2022-10-16T05:55:07;14.10;99.90
19538;DHT22;9914;51.008;4.300;2022-10-16T05:57:33;14.00;99.90
19538;DHT22;9914;51.008;4.300;2022-10-16T05:59:59;14.10;99.90
19538;DHT22;9914;51.008;4.300;2022-10-16T06:02:24;14.10;99.90
19538;DHT22;9914;51.008;4.300;2022-10-16T06:04:51;14.00;99.90
19538;DHT22;9914;51.008;4.300;2022-10-16T06:07:19;14.10;99.90
19538;DHT22;9914;51.008;4.300;2022-10-16T06:09:48;14.20;99.90
19538;DHT22;9914;51.008;4.300;2022-10-16T06:12:14;14.30;99.90
19538;DHT22;9914;51.008;4.300;2022-10-16T06:14:39;14.40;99.90
19538;DHT22;9914;51.008;4.300;2022-10-16T06:17:05;14.30;99.90
19538;DHT22;9914;51.008;4.300;2022-10-16T06:19:30;14.40;99.90
19538;DHT22;9914;51.008;4.300;2022-10-16T06:21:56;14.40;99.90
19538;DHT22;9914;51.008;4.300;2022-10-16T06:24:23;14.40;99.90
19538;DHT22;9914;51.008;4.300;2022-10-16T06:26:49;14.50;99.90
19538;DHT22;9914;51.008;4.300;2022-10-16T06:29:14;14.60;99.90
19538;DHT22;9914;51.008;4.300;2022-10-16T06:31:40;14.50;99.90
19538;DHT22;9914;51.008;4.300;2022-10-16T06:34:08;14.50;99.90
19538;DHT22;9914;51.008;4.300;2022-10-16T06:36:36;14.50;99.90
19538;DHT22;9914;51.008;4.300;2022-10-16T06:39:02;14.50;99.90
19538;DHT22;9914;51.008;4.300;2022-10-16T06:41:28;14.50;99.90
19538;DHT22;9914;51.008;4.300;2022-10-16T06:43:53;14.60;99.90
19538;DHT22;9914;51.008;4.300;2022-10-16T06:46:21;14.60;99.90
19538;DHT22;9914;51.008;4.300;2022-10-16T06:48:47;14.60;99.90
19538;DHT22;9914;51.008;4.300;2022-10-16T06:51:14;14.60;99.90
19538;DHT22;9914;51.008;4.300;2022-10-16T06:53:43;14.60;99.90
19538;DHT22;9914;51.008;4.300;2022-10-16T06:56:14;14.60;99.90
19538;DHT22;9914;51.008;4.300;2022-10-16T06:58:41;14.60;99.90
19538;DHT22;9914;51.008;4.300;2022-10-16T07:01:07;14.70;99.90
19538;DHT22;9914;51.008;4.300;2022-10-16T07:03:33;14.70;99.90
19538;DHT22;9914;51.008;4.300;2022-10-16T07:06:02;14.80;99.90
19538;DHT22;9914;51.008;4.300;2022-10-16T07:08:33;14.80;99.90
19538;DHT22;9914;51.008;4.300;2022-10-16T07:11:00;14.90;99.90
19538;DHT22;9914;51.008;4.300;2022-10-16T07:13:26;14.90;99.90
19538;DHT22;9914;51.008;4.300;2022-10-16T07:15:52;14.90;99.90
19538;DHT22;9914;51.008;4.300;2022-10-16T07:18:18;14.90;99.90
19538;DHT22;9914;51.008;4.300;2022-10-16T07:20:43;14.90;99.90
19538;DHT22;9914;51.008;4.300;2022-10-16T07:23:09;15.00;99.90
19538;DHT22;9914;51.008;4.300;2022-10-16T07:25:35;15.00;99.90
19538;DHT22;9914;51.008;4.300;2022-10-16T07:28:00;15.00;99.90
19538;DHT22;9914;51.008;4.300;2022-10-16T07:30:26;15.00;99.90
19538;DHT22;9914;51.008;4.300;2022-10-16T07:32:51;15.10;99.90
19538;DHT22;9914;51.008;4.300;2022-10-16T07:35:17;15.10;99.90
19538;DHT22;9914;51.008;4.300;2022-10-16T07:37:46;15.20;99.90
19538;DHT22;9914;51.008;4.300;2022-10-16T07:40:12;15.20;99.90
19538;DHT22;9914;51.008;4.300;2022-10-16T07:42:38;15.20;99.90
19538;DHT22;9914;51.008;4.300;2022-10-16T07:45:04;15.20;99.90
19538;DHT22;9914;51.008;4.300;2022-10-16T07:47:29;15.20;99.90
19538;DHT22;9914;51.008;4.300;2022-10-16T07:49:55;15.20;99.90
19538;DHT22;9914;51.008;4.300;2022-10-16T07:52:21;15.20;99.90
19538;DHT22;9914;51.008;4.300;2022-10-16T07:54:46;15.20;99.90
19538;DHT22;9914;51.008;4.300;2022-10-16T07:57:12;15.30;99.90
19538;DHT22;9914;51.008;4.300;2022-10-16T07:59:44;15.40;99.90
19538;DHT22;9914;51.008;4.300;2022-10-16T08:02:09;15.40;99.90
19538;DHT22;9914;51.008;4.300;2022-10-16T08:04:35;15.40;99.90
19538;DHT22;9914;51.008;4.300;2022-10-16T08:07:00;15.40;99.90
19538;DHT22;9914;51.008;4.300;2022-10-16T08:09:26;15.40;99.90
19538;DHT22;9914;51.008;4.300;2022-10-16T08:11:51;15.50;99.90
19538;DHT22;9914;51.008;4.300;2022-10-16T08:14:18;15.50;99.90
19538;DHT22;9914;51.008;4.300;2022-10-16T08:16:43;15.60;99.90
19538;DHT22;9914;51.008;4.300;2022-10-16T08:19:09;15.70;99.90
19538;DHT22;9914;51.008;4.300;2022-10-16T08:21:34;15.70;99.90
19538;DHT22;9914;51.008;4.300;2022-10-16T08:24:00;15.80;99.90
19538;DHT22;9914;51.008;4.300;2022-10-16T08:26:26;16.00;99.90
19538;DHT22;9914;51.008;4.300;2022-10-16T08:28:52;16.00;99.90
19538;DHT22;9914;51.008;4.300;2022-10-16T08:31:17;16.00;99.90
19538;DHT22;9914;51.008;4.300;2022-10-16T08:33:44;16.10;99.90
19538;DHT22;9914;51.008;4.300;2022-10-16T08:36:12;16.20;99.90
19538;DHT22;9914;51.008;4.300;2022-10-16T08:38:38;16.30;99.90
19538;DHT22;9914;51.008;4.300;2022-10-16T08:41:21;16.40;99.90
19538;DHT22;9914;51.008;4.300;2022-10-16T08:44:15;16.60;99.90
19538;DHT22;9914;51.008;4.300;2022-10-16T08:47:02;16.50;99.90
19538;DHT22;9914;51.008;4.300;2022-10-16T08:49:33;16.70;99.90
19538;DHT22;9914;51.008;4.300;2022-10-16T08:51:59;16.80;99.90
19538;DHT22;9914;51.008;4.300;2022-10-16T08:54:34;16.80;99.90
19538;DHT22;9914;51.008;4.300;2022-10-16T08:57:25;16.80;99.90
19538;DHT22;9914;51.008;4.300;2022-10-16T08:59:55;16.90;99.90
19538;DHT22;9914;51.008;4.300;2022-10-16T09:02:37;16.90;99.90
19538;DHT22;9914;51.008;4.300;2022-10-16T09:10:37;17.20;99.90
19538;DHT22;9914;51.008;4.300;2022-10-16T09:15:37;17.50;99.90
19538;DHT22;9914;51.008;4.300;2022-10-16T09:23:30;17.70;99.90
19538;DHT22;9914;51.008;4.300;2022-10-16T09:25:58;17.70;99.90
19538;DHT22;9914;51.008;4.300;2022-10-16T09:28:24;17.70;99.90
19538;DHT22;9914;51.008;4.300;2022-10-16T09:30:50;17.80;99.90
19538;DHT22;9914;51.008;4.300;2022-10-16T09:33:22;17.80;99.90
19538;DHT22;9914;51.008;4.300;2022-10-16T09:35:54;17.90;99.90
19538;DHT22;9914;51.008;4.300;2022-10-16T09:38:32;17.80;99.90
19538;DHT22;9914;51.008;4.300;2022-10-16T09:41:00;17.80;99.90
19538;DHT22;9914;51.008;4.300;2022-10-16T09:46:07;18.00;99.90
19538;DHT22;9914;51.008;4.300;2022-10-16T09:48:37;18.10;99.90
19538;DHT22;9914;51.008;4.300;2022-10-16T09:51:06;18.20;99.90
19538;DHT22;9914;51.008;4.300;2022-10-16T09:53:43;18.20;99.90
19538;DHT22;9914;51.008;4.300;2022-10-16T09:56:11;18.40;99.90
19538;DHT22;9914;51.008;4.300;2022-10-16T09:58:42;18.50;99.90
19538;DHT22;9914;51.008;4.300;2022-10-16T10:01:13;18.70;99.90
19538;DHT22;9914;51.008;4.300;2022-10-16T10:03:41;18.70;99.90
19538;DHT22;9914;51.008;4.300;2022-10-16T10:06:18;18.80;99.90
19538;DHT22;9914;51.008;4.300;2022-10-16T10:09:31;18.80;99.90
19538;DHT22;9914;51.008;4.300;2022-10-16T10:11:54;18.90;99.90
19538;DHT22;9914;51.008;4.300;2022-10-16T10:14:36;18.70;99.90
19538;DHT22;9914;51.008;4.300;2022-10-16T10:19:44;18.90;99.90
19538;DHT22;9914;51.008;4.300;2022-10-16T10:22:38;19.00;99.90
19538;DHT22;9914;51.008;4.300;2022-10-16T10:31:03;19.50;99.90
19538;DHT22;9914;51.008;4.300;2022-10-16T10:33:33;19.70;99.90
19538;DHT22;9914;51.008;4.300;2022-10-16T10:36:16;19.90;99.90
19538;DHT22;9914;51.008;4.300;2022-10-16T10:38:53;20.10;99.90
19538;DHT22;9914;51.008;4.300;2022-10-16T10:46:56;20.30;99.90
19538;DHT22;9914;51.008;4.300;2022-10-16T10:52:01;20.80;99.90
19538;DHT22;9914;51.008;4.300;2022-10-16T10:54:38;20.90;99.90
19538;DHT22;9914;51.008;4.300;2022-10-16T10:57:22;20.80;99.90
19538;DHT22;9914;51.008;4.300;2022-10-16T11:00:13;20.90;99.90
19538;DHT22;9914;51.008;4.300;2022-10-16T11:05:41;21.10;99.90
19538;DHT22;9914;51.008;4.300;2022-10-16T11:10:58;21.00;99.90
19538;DHT22;9914;51.008;4.300;2022-10-16T11:13:45;21.00;99.90
19538;DHT22;9914;51.008;4.300;2022-10-16T11:16:23;21.20;99.90
19538;DHT22;9914;51.008;4.300;2022-10-16T11:21:43;21.00;99.90
19538;DHT22;9914;51.008;4.300;2022-10-16T11:24:34;21.20;99.90
19538;DHT22;9914;51.008;4.300;2022-10-16T11:27:06;21.20;99.90
19538;DHT22;9914;51.008;4.300;2022-10-16T11:29:35;21.20;99.90
19538;DHT22;9914;51.008;4.300;2022-10-16T11:32:14;21.10;99.90
19538;DHT22;9914;51.008;4.300;2022-10-16T11:34:49;21.00;99.90
19538;DHT22;9914;51.008;4.300;2022-10-16T11:37:40;21.10;99.90
19538;DHT22;9914;51.008;4.300;2022-10-16T11:40:33;21.30;99.90
19538;DHT22;9914;51.008;4.300;2022-10-16T11:43:14;21.50;99.90
19538;DHT22;9914;51.008;4.300;2022-10-16T11:45:49;21.80;99.90
19538;DHT22;9914;51.008;4.300;2022-10-16T11:48:41;21.90;99.90
19538;DHT22;9914;51.008;4.300;2022-10-16T11:51:16;21.90;99.90
19538;DHT22;9914;51.008;4.300;2022-10-16T11:56:16;22.20;99.90
19538;DHT22;9914;51.008;4.300;2022-10-16T11:59:08;22.10;99.90
19538;DHT22;9914;51.008;4.300;2022-10-16T12:01:49;22.10;99.90
19538;DHT22;9914;51.008;4.300;2022-10-16T12:07:13;22.20;99.90
19538;DHT22;9914;51.008;4.300;2022-10-16T12:09:40;22.20;99.90
19538;DHT22;9914;51.008;4.300;2022-10-16T12:12:46;22.30;99.90
19538;DHT22;9914;51.008;4.300;2022-10-16T12:15:28;22.20;99.90
19538;DHT22;9914;51.008;4.300;2022-10-16T12:17:55;22.10;99.90
19538;DHT22;9914;51.008;4.300;2022-10-16T12:22:49;21.80;99.90
19538;DHT22;9914;51.008;4.300;2022-10-16T12:25:24;21.60;99.90
19538;DHT22;9914;51.008;4.300;2022-10-16T12:28:20;21.50;99.90
19538;DHT22;9914;51.008;4.300;2022-10-16T12:30:55;21.60;99.90
19538;DHT22;9914;51.008;4.300;2022-10-16T12:33:24;21.70;99.90
19538;DHT22;9914;51.008;4.300;2022-10-16T12:35:51;21.80;99.90
19538;DHT22;9914;51.008;4.300;2022-10-16T12:38:18;21.80;99.90
19538;DHT22;9914;51.008;4.300;2022-10-16T12:40:46;22.00;99.90
19538;DHT22;9914;51.008;4.300;2022-10-16T12:43:27;22.30;99.90
19538;DHT22;9914;51.008;4.300;2022-10-16T12:48:33;22.40;99.90
19538;DHT22;9914;51.008;4.300;2022-10-16T12:54:12;21.80;99.90
19538;DHT22;9914;51.008;4.300;2022-10-16T12:59:29;21.50;99.90
19538;DHT22;9914;51.008;4.300;2022-10-16T13:02:24;21.40;99.90
19538;DHT22;9914;51.008;4.300;2022-10-16T13:17:20;22.00;99.90
19538;DHT22;9914;51.008;4.300;2022-10-16T13:19:42;22.10;99.90
19538;DHT22;9914;51.008;4.300;2022-10-16T13:28:13;22.20;99.90
19538;DHT22;9914;51.008;4.300;2022-10-16T13:30:44;21.80;99.90
19538;DHT22;9914;51.008;4.300;2022-10-16T13:33:30;21.60;99.90
19538;DHT22;9914;51.008;4.300;2022-10-16T13:35:57;21.70;99.90
19538;DHT22;9914;51.008;4.300;2022-10-16T13:38:25;21.40;99.90
19538;DHT22;9914;51.008;4.300;2022-10-16T13:43:26;21.20;99.90
19538;DHT22;9914;51.008;4.300;2022-10-16T13:45:54;21.90;99.90
19538;DHT22;9914;51.008;4.300;2022-10-16T13:48:19;22.20;99.90
19538;DHT22;9914;51.008;4.300;2022-10-16T13:50:45;22.20;99.90
19538;DHT22;9914;51.008;4.300;2022-10-16T13:53:14;22.30;99.90
19538;DHT22;9914;51.008;4.300;2022-10-16T13:55:40;22.20;99.90
19538;DHT22;9914;51.008;4.300;2022-10-16T13:58:13;22.20;99.90
19538;DHT22;9914;51.008;4.300;2022-10-16T14:00:40;22.10;99.90
19538;DHT22;9914;51.008;4.300;2022-10-16T14:03:16;22.10;99.90
19538;DHT22;9914;51.008;4.300;2022-10-16T14:05:56;22.00;99.90
19538;DHT22;9914;51.008;4.300;2022-10-16T14:08:24;22.00;99.90
19538;DHT22;9914;51.008;4.300;2022-10-16T14:10:56;22.00;99.90
19538;DHT22;9914;51.008;4.300;2022-10-16T14:13:45;22.00;99.90
19538;DHT22;9914;51.008;4.300;2022-10-16T14:16:17;22.30;99.90
19538;DHT22;9914;51.008;4.300;2022-10-16T14:18:46;22.20;99.90
19538;DHT22;9914;51.008;4.300;2022-10-16T14:21:16;22.30;99.90
19538;DHT22;9914;51.008;4.300;2022-10-16T14:23:42;22.40;99.90
19538;DHT22;9914;51.008;4.300;2022-10-16T14:28:34;22.80;99.90
19538;DHT22;9914;51.008;4.300;2022-10-16T14:31:02;22.80;99.90
19538;DHT22;9914;51.008;4.300;2022-10-16T14:38:36;23.60;99.90
19538;DHT22;9914;51.008;4.300;2022-10-16T14:41:03;23.30;99.90
19538;DHT22;9914;51.008;4.300;2022-10-16T14:43:33;23.00;99.90
19538;DHT22;9914;51.008;4.300;2022-10-16T14:46:00;22.50;99.90
19538;DHT22;9914;51.008;4.300;2022-10-16T14:48:27;22.30;99.90
19538;DHT22;9914;51.008;4.300;2022-10-16T14:50:52;21.80;99.90
19538;DHT22;9914;51.008;4.300;2022-10-16T14:53:18;21.80;99.90
19538;DHT22;9914;51.008;4.300;2022-10-16T14:55:44;21.80;99.90
19538;DHT22;9914;51.008;4.300;2022-10-16T14:58:21;21.70;99.90
19538;DHT22;9914;51.008;4.300;2022-10-16T15:00:48;21.50;99.90
19538;DHT22;9914;51.008;4.300;2022-10-16T15:03:14;21.30;99.90
19538;DHT22;9914;51.008;4.300;2022-10-16T15:05:40;20.90;99.90
19538;DHT22;9914;51.008;4.300;2022-10-16T15:08:06;20.80;99.90
19538;DHT22;9914;51.008;4.300;2022-10-16T15:10:38;20.90;99.90
19538;DHT22;9914;51.008;4.300;2022-10-16T15:13:04;21.10;99.90
19538;DHT22;9914;51.008;4.300;2022-10-16T15:15:47;21.30;99.90
19538;DHT22;9914;51.008;4.300;2022-10-16T15:18:14;21.30;99.90
19538;DHT22;9914;51.008;4.300;2022-10-16T15:20:47;21.10;99.90
19538;DHT22;9914;51.008;4.300;2022-10-16T15:23:18;21.20;99.90
19538;DHT22;9914;51.008;4.300;2022-10-16T15:25:52;21.10;99.90
19538;DHT22;9914;51.008;4.300;2022-10-16T15:28:19;21.30;99.90
19538;DHT22;9914;51.008;4.300;2022-10-16T15:30:45;21.20;99.90
19538;DHT22;9914;51.008;4.300;2022-10-16T15:33:14;21.20;99.90
19538;DHT22;9914;51.008;4.300;2022-10-16T15:35:41;20.90;99.90
19538;DHT22;9914;51.008;4.300;2022-10-16T15:38:11;20.80;99.90
19538;DHT22;9914;51.008;4.300;2022-10-16T15:40:37;20.60;99.90
19538;DHT22;9914;51.008;4.300;2022-10-16T15:43:03;20.50;99.90
19538;DHT22;9914;51.008;4.300;2022-10-16T15:45:28;20.40;99.90
19538;DHT22;9914;51.008;4.300;2022-10-16T15:47:54;20.30;99.90
19538;DHT22;9914;51.008;4.300;2022-10-16T15:50:19;20.30;99.90
19538;DHT22;9914;51.008;4.300;2022-10-16T15:52:45;20.20;99.90
19538;DHT22;9914;51.008;4.300;2022-10-16T15:55:13;20.20;99.90
19538;DHT22;9914;51.008;4.300;2022-10-16T15:57:39;20.20;99.90
19538;DHT22;9914;51.008;4.300;2022-10-16T16:00:09;20.20;99.90
19538;DHT22;9914;51.008;4.300;2022-10-16T16:02:34;20.20;99.90
19538;DHT22;9914;51.008;4.300;2022-10-16T16:05:00;20.20;99.90
19538;DHT22;9914;51.008;4.300;2022-10-16T16:07:26;20.20;99.90
19538;DHT22;9914;51.008;4.300;2022-10-16T16:09:53;20.20;99.90
19538;DHT22;9914;51.008;4.300;2022-10-16T16:12:18;20.20;99.90
19538;DHT22;9914;51.008;4.300;2022-10-16T16:14:44;20.30;99.90
19538;DHT22;9914;51.008;4.300;2022-10-16T16:17:11;20.20;99.90
19538;DHT22;9914;51.008;4.300;2022-10-16T16:19:37;20.10;99.90
19538;DHT22;9914;51.008;4.300;2022-10-16T16:22:02;20.20;99.90
19538;DHT22;9914;51.008;4.300;2022-10-16T16:24:28;20.00;99.90
19538;DHT22;9914;51.008;4.300;2022-10-16T16:26:54;19.90;99.90
19538;DHT22;9914;51.008;4.300;2022-10-16T16:29:19;19.80;99.90
19538;DHT22;9914;51.008;4.300;2022-10-16T16:31:45;19.80;99.90
19538;DHT22;9914;51.008;4.300;2022-10-16T16:34:12;19.80;99.90
19538;DHT22;9914;51.008;4.300;2022-10-16T16:36:38;19.60;99.90
19538;DHT22;9914;51.008;4.300;2022-10-16T16:39:05;19.50;99.90
19538;DHT22;9914;51.008;4.300;2022-10-16T16:41:31;19.40;99.90
19538;DHT22;9914;51.008;4.300;2022-10-16T16:44:02;19.40;99.90
19538;DHT22;9914;51.008;4.300;2022-10-16T16:46:28;19.40;99.90
19538;DHT22;9914;51.008;4.300;2022-10-16T16:48:54;19.40;99.90
19538;DHT22;9914;51.008;4.300;2022-10-16T16:51:21;19.50;99.90
19538;DHT22;9914;51.008;4.300;2022-10-16T16:53:52;19.60;99.90
19538;DHT22;9914;51.008;4.300;2022-10-16T16:56:19;19.60;99.90
19538;DHT22;9914;51.008;4.300;2022-10-16T16:58:53;19.40;99.90
19538;DHT22;9914;51.008;4.300;2022-10-16T17:01:19;19.40;99.90
19538;DHT22;9914;51.008;4.300;2022-10-16T17:03:46;19.40;99.90
19538;DHT22;9914;51.008;4.300;2022-10-16T17:06:14;19.30;99.90
19538;DHT22;9914;51.008;4.300;2022-10-16T17:08:40;19.30;99.90
19538;DHT22;9914;51.008;4.300;2022-10-16T17:11:12;19.30;99.90
19538;DHT22;9914;51.008;4.300;2022-10-16T17:13:37;19.20;99.90
19538;DHT22;9914;51.008;4.300;2022-10-16T17:16:04;19.00;99.90
19538;DHT22;9914;51.008;4.300;2022-10-16T17:18:31;19.00;99.90
19538;DHT22;9914;51.008;4.300;2022-10-16T17:21:01;18.90;99.90
19538;DHT22;9914;51.008;4.300;2022-10-16T17:23:27;19.00;99.90
19538;DHT22;9914;51.008;4.300;2022-10-16T17:25:53;19.10;99.90
19538;DHT22;9914;51.008;4.300;2022-10-16T17:28:19;19.00;99.90
19538;DHT22;9914;51.008;4.300;2022-10-16T17:30:45;18.90;99.90
19538;DHT22;9914;51.008;4.300;2022-10-16T17:33:12;18.90;99.90
19538;DHT22;9914;51.008;4.300;2022-10-16T17:35:39;19.00;99.90